createdAt,value
2018-05-15T00:01:44.064Z,11.80
2018-05-15T00:04:11.640Z,11.80
2018-05-15T00:06:39.180Z,11.80
2018-05-15T00:09:07.541Z,11.70
2018-05-15T00:11:35.062Z,11.60
2018-05-15T00:14:02.612Z,11.60
2018-05-15T00:16:30.160Z,11.60
2018-05-15T00:18:58.143Z,11.60
2018-05-15T00:21:25.699Z,11.60
2018-05-15T00:23:53.245Z,11.60
2018-05-15T00:26:21.561Z,11.60
2018-05-15T00:28:49.103Z,11.60
2018-05-15T00:31:16.647Z,11.50
2018-05-15T00:33:44.227Z,11.50
2018-05-15T00:36:11.779Z,11.50
2018-05-15T00:38:39.343Z,11.50
2018-05-15T00:41:06.892Z,11.50
2018-05-15T00:43:34.451Z,11.40
2018-05-15T00:46:01.993Z,11.40
2018-05-15T00:48:29.522Z,11.40
2018-05-15T00:50:57.071Z,11.40
2018-05-15T00:53:25.386Z,11.30
2018-05-15T00:55:52.933Z,11.30
2018-05-15T00:58:20.492Z,11.30
2018-05-15T01:00:48.023Z,11.20
2018-05-15T01:03:15.581Z,11.10
2018-05-15T01:05:43.123Z,11.00
2018-05-15T01:08:10.747Z,11.00
2018-05-15T01:10:38.286Z,10.90
2018-05-15T01:13:05.836Z,10.90
2018-05-15T01:15:33.360Z,10.80
2018-05-15T01:18:00.901Z,10.80
2018-05-15T01:20:28.459Z,10.70
2018-05-15T01:22:56.003Z,10.70
2018-05-15T01:25:23.536Z,10.60
2018-05-15T01:27:51.860Z,10.50
2018-05-15T01:30:19.394Z,10.50
2018-05-15T01:32:46.968Z,10.50
2018-05-15T01:35:14.495Z,10.40
2018-05-15T01:37:42.023Z,10.40
2018-05-15T01:46:14.978Z,10.30
2018-05-15T01:48:43.300Z,10.20
2018-05-15T01:51:10.861Z,10.20
2018-05-15T01:53:38.399Z,10.20
2018-05-15T01:56:05.942Z,10.20
2018-05-15T01:58:33.487Z,10.20
2018-05-15T02:01:01.024Z,10.20
2018-05-15T02:03:28.575Z,10.10
2018-05-15T02:05:56.881Z,10.10
2018-05-15T02:08:24.432Z,10.10
2018-05-15T02:10:52.007Z,10.10
2018-05-15T02:13:19.565Z,10.00
2018-05-15T02:15:47.092Z,10.00
2018-05-15T02:18:14.656Z,10.00
2018-05-15T02:20:42.204Z,10.00
2018-05-15T02:23:10.520Z,9.90
2018-05-15T02:25:38.050Z,9.90
2018-05-15T02:28:05.592Z,9.90
2018-05-15T02:30:33.906Z,9.80
2018-05-15T02:33:01.459Z,9.80
2018-05-15T02:35:28.993Z,9.80
2018-05-15T02:37:56.583Z,9.80
2018-05-15T02:40:24.137Z,9.80
2018-05-15T02:42:51.697Z,9.70
2018-05-15T02:45:19.265Z,9.70
2018-05-15T02:47:46.796Z,9.60
2018-05-15T02:50:14.357Z,9.60
2018-05-15T02:52:41.927Z,9.60
2018-05-15T02:55:09.468Z,9.50
2018-05-15T02:57:37.010Z,9.50
2018-05-15T03:00:05.341Z,9.40
2018-05-15T03:02:32.867Z,9.40
2018-05-15T03:05:00.421Z,9.40
2018-05-15T03:07:27.943Z,9.40
2018-05-15T03:09:55.487Z,9.30
2018-05-15T03:12:23.024Z,9.30
2018-05-15T03:14:50.567Z,9.30
2018-05-15T03:17:18.092Z,9.20
2018-05-15T03:19:46.415Z,9.20
2018-05-15T03:22:13.950Z,9.20
2018-05-15T03:24:41.507Z,9.20
2018-05-15T03:27:09.405Z,9.20
2018-05-15T03:29:37.701Z,9.20
2018-05-15T03:32:05.332Z,9.20
2018-05-15T03:34:32.875Z,9.20
2018-05-15T03:37:00.429Z,9.10
2018-05-15T03:39:27.985Z,9.10
2018-05-15T03:41:55.520Z,9.00
2018-05-15T03:44:23.828Z,8.90
2018-05-15T03:46:51.347Z,8.90
2018-05-15T03:49:18.908Z,8.90
2018-05-15T03:51:47.218Z,8.80
2018-05-15T03:54:14.796Z,8.80
2018-05-15T03:56:42.473Z,8.80
2018-05-15T03:59:10.917Z,8.80
2018-05-15T04:01:50.447Z,8.70
2018-05-15T04:04:35.163Z,8.70
2018-05-15T04:07:14.766Z,8.70
2018-05-15T04:09:42.327Z,8.70
2018-05-15T04:12:09.850Z,8.70
2018-05-15T04:14:37.383Z,8.70
2018-05-15T04:17:04.913Z,8.70
2018-05-15T04:19:36.048Z,8.70
2018-05-15T04:22:03.608Z,8.70
2018-05-15T04:24:31.163Z,8.70
2018-05-15T04:27:02.240Z,8.80
2018-05-15T04:29:29.785Z,8.80
2018-05-15T04:31:57.323Z,8.80
2018-05-15T04:34:25.204Z,8.90
2018-05-15T04:36:52.735Z,8.90
2018-05-15T04:39:20.294Z,9.00
2018-05-15T04:41:48.614Z,9.00
2018-05-15T04:44:16.151Z,9.00
2018-05-15T04:46:43.701Z,9.10
2018-05-15T04:49:11.248Z,9.10
2018-05-15T04:51:38.769Z,9.10
2018-05-15T04:54:06.295Z,9.20
2018-05-15T04:56:33.849Z,9.30
2018-05-15T04:59:01.403Z,9.30
2018-05-15T05:01:28.966Z,9.40
2018-05-15T05:03:56.515Z,9.60
2018-05-15T05:06:24.051Z,10.00
2018-05-15T05:08:51.590Z,10.40
2018-05-15T05:11:19.920Z,10.80
2018-05-15T05:13:47.590Z,10.80
2018-05-15T05:16:15.158Z,10.80
2018-05-15T05:18:42.738Z,10.90
2018-05-15T05:21:11.062Z,11.00
2018-05-15T05:23:38.612Z,11.00
2018-05-15T05:26:06.177Z,11.10
2018-05-15T05:28:33.704Z,11.50
2018-05-15T05:31:01.322Z,12.10
2018-05-15T05:33:28.889Z,12.70
2018-05-15T05:35:56.464Z,13.10
2018-05-15T05:38:23.984Z,13.60
2018-05-15T05:40:51.517Z,14.20
2018-05-15T05:43:19.327Z,14.60
2018-05-15T05:45:46.867Z,15.00
2018-05-15T05:48:14.436Z,15.70
2018-05-15T05:50:42.013Z,16.10
2018-05-15T05:53:09.564Z,16.70
2018-05-15T05:55:37.112Z,17.30
2018-05-15T05:58:04.679Z,17.70
2018-05-15T06:00:32.211Z,18.10
2018-05-15T06:03:00.499Z,18.70
2018-05-15T06:05:28.072Z,18.70
2018-05-15T06:07:55.682Z,18.90
2018-05-15T06:10:23.218Z,19.30
2018-05-15T06:12:50.779Z,19.60
2018-05-15T06:15:19.096Z,20.40
2018-05-15T06:17:46.627Z,20.40
2018-05-15T06:20:14.925Z,21.10
2018-05-15T06:22:42.454Z,21.10
2018-05-15T06:25:09.996Z,20.70
2018-05-15T06:27:37.615Z,20.70
2018-05-15T06:30:05.097Z,21.00
2018-05-15T06:32:32.641Z,20.70
2018-05-15T06:35:00.188Z,20.40
2018-05-15T06:37:27.747Z,20.30
2018-05-15T06:39:55.295Z,19.40
2018-05-15T06:42:22.826Z,18.60
2018-05-15T06:44:51.240Z,17.20
2018-05-15T06:47:18.673Z,17.20
2018-05-15T06:49:46.216Z,16.80
2018-05-15T06:52:13.735Z,16.40
2018-05-15T06:54:41.275Z,16.00
2018-05-15T06:57:08.898Z,15.70
2018-05-15T06:59:37.199Z,14.90
2018-05-15T07:02:04.731Z,14.90
2018-05-15T07:04:32.273Z,14.80
2018-05-15T07:07:00.567Z,15.70
2018-05-15T07:09:28.871Z,16.40
2018-05-15T07:11:56.404Z,16.40
2018-05-15T07:14:23.935Z,17.10
2018-05-15T07:16:51.472Z,17.80
2018-05-15T07:19:19.015Z,18.40
2018-05-15T07:21:46.547Z,19.10
2018-05-15T07:24:14.066Z,19.80
2018-05-15T07:26:41.595Z,19.80
2018-05-15T07:29:09.143Z,20.30
2018-05-15T07:31:36.681Z,20.00
2018-05-15T07:34:04.199Z,20.20
2018-05-15T07:36:31.736Z,20.70
2018-05-15T07:38:59.255Z,20.50
2018-05-15T07:41:26.790Z,20.60
2018-05-15T07:43:55.083Z,19.90
2018-05-15T07:46:22.635Z,19.90
2018-05-15T07:48:50.164Z,20.50
2018-05-15T07:51:17.716Z,20.50
2018-05-15T07:53:45.300Z,20.40
2018-05-15T07:56:12.791Z,20.10
2018-05-15T07:58:40.319Z,20.00
2018-05-15T08:01:08.610Z,20.30
2018-05-15T08:03:36.144Z,20.30
2018-05-15T08:06:05.590Z,20.30
2018-05-15T08:08:33.124Z,20.50
2018-05-15T08:11:00.666Z,20.50
2018-05-15T08:13:28.979Z,20.50
2018-05-15T08:15:56.515Z,20.50
2018-05-15T08:18:24.030Z,20.10
2018-05-15T08:20:51.572Z,20.50
2018-05-15T08:23:19.083Z,20.70
2018-05-15T08:25:46.615Z,20.70
2018-05-15T08:28:14.150Z,20.60
2018-05-15T08:30:41.686Z,20.60
2018-05-15T08:33:09.227Z,20.30
2018-05-15T08:35:36.783Z,20.70
2018-05-15T08:38:04.302Z,21.00
2018-05-15T08:40:31.824Z,20.90
2018-05-15T08:42:59.344Z,20.30
2018-05-15T08:45:27.680Z,21.00
2018-05-15T08:47:55.145Z,21.00
2018-05-15T08:50:22.708Z,20.70
2018-05-15T08:52:50.419Z,20.50
2018-05-15T08:55:17.947Z,20.60
2018-05-15T08:57:46.257Z,20.80
2018-05-15T09:00:13.851Z,20.70
2018-05-15T09:02:41.403Z,20.70
2018-05-15T09:05:09.071Z,20.80
2018-05-15T09:07:36.595Z,21.10
2018-05-15T09:10:04.140Z,21.00
2018-05-15T09:12:31.655Z,20.70
2018-05-15T09:14:59.215Z,20.50
2018-05-15T09:17:27.723Z,21.10
2018-05-15T09:19:56.035Z,21.80
2018-05-15T09:22:23.555Z,21.70
2018-05-15T09:24:51.856Z,21.80
2018-05-15T09:27:26.044Z,21.70
2018-05-15T09:29:54.349Z,22.20
2018-05-15T09:32:21.879Z,22.20
2018-05-15T09:34:50.186Z,22.60
2018-05-15T09:37:17.709Z,22.60
2018-05-15T09:39:45.998Z,22.40
2018-05-15T09:42:13.539Z,22.40
2018-05-15T09:44:41.857Z,22.80
2018-05-15T09:47:09.457Z,22.80
2018-05-15T09:49:36.990Z,23.10
2018-05-15T09:52:04.542Z,23.00
2018-05-15T09:54:32.071Z,23.00
2018-05-15T09:56:59.602Z,23.30
2018-05-15T09:59:27.126Z,23.10
2018-05-15T10:01:54.665Z,23.50
2018-05-15T10:04:22.191Z,23.40
2018-05-15T10:06:49.727Z,22.80
2018-05-15T10:09:17.257Z,22.80
2018-05-15T10:11:44.782Z,23.00
2018-05-15T10:14:12.321Z,23.10
2018-05-15T10:16:39.855Z,23.20
2018-05-15T10:19:07.414Z,22.50
2018-05-15T10:21:34.948Z,22.60
2018-05-15T10:24:02.488Z,22.40
2018-05-15T10:26:30.024Z,22.20
2018-05-15T10:28:58.398Z,22.60
2018-05-15T10:31:26.696Z,22.70
2018-05-15T10:33:54.227Z,22.70
2018-05-15T10:36:22.532Z,22.60
2018-05-15T10:38:50.046Z,22.60
2018-05-15T10:41:17.567Z,22.40
2018-05-15T10:43:45.096Z,22.70
2018-05-15T10:46:12.624Z,22.10
2018-05-15T10:48:40.141Z,21.80
2018-05-15T10:51:16.052Z,21.70
2018-05-15T10:53:44.357Z,21.60
2018-05-15T10:56:11.921Z,21.60
2018-05-15T10:58:39.451Z,21.40
2018-05-15T11:01:08.595Z,21.60
2018-05-15T11:03:36.115Z,21.60
2018-05-15T11:06:04.248Z,21.40
2018-05-15T11:08:31.765Z,21.40
2018-05-15T11:10:59.840Z,21.30
2018-05-15T11:13:27.367Z,21.40
2018-05-15T11:15:54.901Z,21.60
2018-05-15T11:21:33.471Z,21.40
2018-05-15T11:27:02.344Z,21.20
2018-05-15T11:29:29.879Z,21.10
2018-05-15T11:31:57.410Z,21.20
2018-05-15T11:34:24.944Z,21.30
2018-05-15T11:36:52.500Z,21.10
2018-05-15T11:39:20.794Z,21.20
2018-05-15T11:41:52.923Z,21.30
2018-05-15T11:44:20.419Z,21.40
2018-05-15T11:46:47.955Z,21.50
2018-05-15T11:49:16.189Z,21.40
2018-05-15T11:51:44.654Z,21.40
2018-05-15T11:54:11.387Z,21.40
2018-05-15T11:56:38.923Z,21.30
2018-05-15T11:59:06.490Z,21.40
2018-05-15T12:01:34.017Z,21.40
2018-05-15T12:04:02.356Z,21.40
2018-05-15T12:06:29.866Z,21.40
2018-05-15T12:08:57.583Z,21.30
2018-05-15T12:11:25.830Z,21.00
2018-05-15T12:13:53.367Z,21.00
2018-05-15T12:16:20.906Z,21.00
2018-05-15T12:18:49.200Z,21.30
2018-05-15T12:21:16.732Z,21.20
2018-05-15T12:23:44.255Z,21.40
2018-05-15T12:26:13.841Z,21.30
2018-05-15T12:28:58.900Z,21.10
2018-05-15T12:31:31.239Z,21.00
2018-05-15T12:33:59.553Z,21.10
2018-05-15T12:36:28.012Z,21.10
2018-05-15T12:38:56.308Z,21.50
2018-05-15T12:41:23.976Z,21.50
2018-05-15T12:43:51.408Z,21.70
2018-05-15T12:46:18.927Z,21.70
2018-05-15T12:48:46.569Z,21.60
2018-05-15T12:51:14.020Z,21.50
2018-05-15T12:53:41.553Z,21.30
2018-05-15T12:56:09.069Z,21.30
2018-05-15T12:58:36.610Z,20.90
2018-05-15T13:01:04.150Z,20.70
2018-05-15T13:03:31.706Z,20.50
2018-05-15T13:05:59.219Z,20.50
2018-05-15T13:08:27.530Z,20.40
2018-05-15T13:10:55.064Z,20.40
2018-05-15T13:13:23.419Z,21.00
2018-05-15T13:15:51.712Z,21.00
2018-05-15T13:18:20.019Z,21.30
2018-05-15T13:20:47.547Z,21.30
2018-05-15T13:23:15.861Z,21.40
2018-05-15T13:25:43.400Z,21.40
2018-05-15T13:28:10.927Z,21.30
2018-05-15T13:30:39.233Z,21.30
2018-05-15T13:33:06.759Z,21.30
2018-05-15T13:35:35.068Z,21.30
2018-05-15T13:38:02.672Z,21.30
2018-05-15T13:40:30.258Z,21.20
2018-05-15T13:42:57.721Z,21.20
2018-05-15T13:45:25.265Z,21.00
2018-05-15T13:47:52.803Z,21.10
2018-05-15T13:50:20.343Z,21.30
2018-05-15T13:52:47.864Z,21.20
2018-05-15T13:55:15.403Z,21.30
2018-05-15T13:57:42.924Z,21.20
2018-05-15T14:00:10.464Z,21.20
2018-05-15T14:02:37.991Z,21.20
2018-05-15T14:05:06.290Z,21.10
2018-05-15T14:07:33.823Z,21.10
2018-05-15T14:10:02.146Z,21.10
2018-05-15T14:12:29.768Z,21.10
2018-05-15T14:14:57.226Z,21.00
2018-05-15T14:17:24.765Z,21.20
2018-05-15T14:19:53.076Z,21.00
2018-05-15T14:22:20.603Z,21.00
2018-05-15T14:24:48.236Z,21.20
2018-05-15T14:27:15.656Z,21.30
2018-05-15T14:29:43.184Z,21.30
2018-05-15T14:32:11.471Z,21.20
2018-05-15T14:34:39.006Z,21.20
2018-05-15T14:37:06.525Z,21.20
2018-05-15T14:39:34.067Z,21.30
2018-05-15T14:42:13.574Z,21.20
2018-05-15T14:44:41.882Z,21.60
2018-05-15T14:47:09.415Z,21.60
2018-05-15T14:49:36.947Z,21.90
2018-05-15T14:52:04.480Z,22.10
2018-05-15T14:54:32.012Z,22.00
2018-05-15T14:56:59.560Z,21.90
2018-05-15T14:59:27.083Z,21.70
2018-05-15T15:01:54.626Z,21.70
2018-05-15T15:04:22.161Z,21.60
2018-05-15T15:06:49.774Z,21.60
2018-05-15T15:09:18.174Z,21.40
2018-05-15T15:11:45.728Z,21.40
2018-05-15T15:14:13.258Z,21.40
2018-05-15T15:16:40.796Z,21.40
2018-05-15T15:19:08.349Z,21.30
2018-05-15T15:21:35.887Z,21.30
2018-05-15T15:24:03.435Z,21.30
2018-05-15T15:26:30.963Z,21.10
2018-05-15T15:28:58.682Z,21.00
2018-05-15T15:31:26.288Z,20.90
2018-05-15T15:33:54.559Z,20.70
2018-05-15T15:36:22.860Z,20.60
2018-05-15T15:38:50.404Z,20.60
2018-05-15T15:41:17.936Z,20.60
2018-05-15T15:43:45.475Z,20.60
2018-05-15T15:46:13.120Z,20.60
2018-05-15T15:48:40.652Z,20.70
2018-05-15T15:51:08.189Z,20.60
2018-05-15T15:53:36.468Z,20.70
2018-05-15T15:56:04.052Z,20.70
2018-05-15T15:58:31.648Z,21.00
2018-05-15T16:00:59.196Z,21.20
2018-05-15T16:03:26.741Z,21.50
2018-05-15T16:05:54.311Z,21.60
2018-05-15T16:08:25.203Z,21.60
2018-05-15T16:10:52.776Z,21.60
2018-05-15T16:13:22.263Z,21.70
2018-05-15T16:15:53.417Z,21.60
2018-05-15T16:18:33.701Z,21.50
2018-05-15T16:21:01.247Z,21.40
2018-05-15T16:23:28.784Z,21.40
2018-05-15T16:25:56.326Z,21.30
2018-05-15T16:28:24.629Z,21.30
2018-05-15T16:30:52.199Z,21.30
2018-05-15T16:33:19.809Z,21.30
2018-05-15T16:35:53.089Z,21.20
2018-05-15T16:38:20.652Z,21.30
2018-05-15T16:40:48.264Z,21.10
2018-05-15T16:43:15.822Z,21.00
2018-05-15T16:45:43.331Z,21.10
2018-05-15T16:48:10.864Z,21.30
2018-05-15T16:50:38.413Z,21.40
2018-05-15T16:53:06.034Z,21.50
2018-05-15T16:55:34.338Z,21.60
2018-05-15T16:58:13.096Z,21.60
2018-05-15T17:00:40.627Z,21.60
2018-05-15T17:03:08.159Z,21.70
2018-05-15T17:05:35.681Z,21.60
2018-05-15T17:08:06.383Z,21.30
2018-05-15T17:10:34.087Z,21.30
2018-05-15T17:13:04.357Z,21.40
2018-05-15T17:15:31.879Z,21.40
2018-05-15T17:18:00.194Z,21.10
2018-05-15T17:20:27.743Z,21.00
2018-05-15T17:22:55.287Z,20.90
2018-05-15T17:25:23.212Z,20.90
2018-05-15T17:27:51.546Z,20.50
2018-05-15T17:30:19.111Z,20.50
2018-05-15T17:32:46.693Z,20.50
2018-05-15T17:35:14.731Z,20.30
2018-05-15T17:37:42.322Z,20.40
2018-05-15T17:40:09.854Z,20.30
2018-05-15T17:42:37.412Z,20.30
2018-05-15T17:45:04.949Z,20.20
2018-05-15T17:47:33.523Z,20.20
2018-05-15T17:50:01.847Z,20.00
2018-05-15T17:52:29.389Z,20.00
2018-05-15T17:54:56.904Z,20.10
2018-05-15T17:57:25.220Z,19.90
2018-05-15T17:59:52.798Z,19.90
2018-05-15T18:02:21.056Z,19.90
2018-05-15T18:04:48.619Z,19.90
2018-05-15T18:07:16.997Z,19.80
2018-05-15T18:09:44.514Z,19.80
2018-05-15T18:12:12.880Z,19.80
2018-05-15T18:14:40.420Z,19.70
2018-05-15T18:17:08.065Z,19.70
2018-05-15T18:19:35.673Z,19.50
2018-05-15T18:22:03.955Z,19.50
2018-05-15T18:24:32.375Z,19.40
2018-05-15T18:26:59.879Z,19.30
2018-05-15T18:29:28.322Z,19.20
2018-05-15T18:31:55.888Z,19.20
2018-05-15T18:34:23.419Z,19.10
2018-05-15T18:36:50.955Z,19.00
2018-05-15T18:39:18.494Z,18.90
2018-05-15T18:41:46.015Z,18.90
2018-05-15T18:44:13.564Z,18.80
2018-05-15T18:46:41.108Z,18.70
2018-05-15T18:49:08.639Z,18.60
2018-05-15T18:51:36.252Z,18.50
2018-05-15T18:54:03.861Z,18.40
2018-05-15T18:56:31.390Z,18.30
2018-05-15T18:58:59.846Z,18.20
2018-05-15T19:01:27.392Z,18.00
2018-05-15T19:03:54.958Z,18.00
2018-05-15T19:06:22.499Z,17.90
2018-05-15T19:08:50.783Z,17.60
2018-05-15T19:11:19.172Z,17.60
2018-05-15T19:13:46.772Z,17.50
2018-05-15T19:16:16.255Z,17.40
2018-05-15T19:18:44.707Z,17.20
2018-05-15T19:21:12.239Z,17.10
2018-05-15T19:23:39.843Z,17.00
2018-05-15T19:26:07.463Z,16.80
2018-05-15T19:28:35.922Z,16.70
2018-05-15T19:31:04.225Z,16.50
2018-05-15T19:33:39.458Z,16.50
2018-05-15T19:36:09.803Z,16.40
2018-05-15T19:38:38.253Z,16.30
2018-05-15T19:41:06.558Z,16.10
2018-05-15T19:43:34.073Z,16.10
2018-05-15T19:46:06.231Z,16.00
2018-05-15T19:48:33.799Z,16.00
2018-05-15T19:51:02.197Z,15.80
2018-05-15T19:53:30.650Z,15.70
2018-05-15T19:55:58.183Z,15.70
2018-05-15T19:58:25.949Z,15.60
2018-05-15T20:00:53.626Z,15.50
2018-05-15T20:03:21.184Z,15.40
2018-05-15T20:05:49.516Z,15.30
2018-05-15T20:08:17.090Z,15.30
2018-05-15T20:10:44.664Z,15.20
2018-05-15T20:13:12.195Z,15.20
2018-05-15T20:15:40.019Z,15.00
2018-05-15T20:18:07.551Z,15.00
2018-05-15T20:20:35.945Z,14.80
2018-05-15T20:23:03.475Z,14.80
2018-05-15T20:25:41.625Z,14.70
2018-05-15T20:28:09.231Z,14.70
2018-05-15T20:30:36.812Z,14.60
2018-05-15T20:33:04.352Z,14.50
2018-05-15T20:35:31.904Z,14.40
2018-05-15T20:37:59.443Z,14.40
2018-05-15T20:40:26.992Z,14.40
2018-05-15T20:42:54.522Z,14.30
2018-05-15T20:45:22.039Z,14.30
2018-05-15T20:47:49.581Z,14.40
2018-05-15T20:50:17.127Z,14.40
2018-05-15T20:52:44.698Z,14.50
2018-05-15T20:55:12.341Z,14.50
2018-05-15T20:57:39.961Z,14.50
2018-05-15T21:00:07.608Z,14.60
2018-05-15T21:02:35.137Z,14.60
2018-05-15T21:05:02.763Z,14.80
2018-05-15T21:07:31.128Z,14.90
2018-05-15T21:09:58.842Z,14.90
2018-05-15T21:12:26.432Z,15.00
2018-05-15T21:14:53.980Z,15.00
2018-05-15T21:17:23.411Z,15.00
2018-05-15T21:19:50.944Z,15.00
2018-05-15T21:22:18.475Z,15.00
2018-05-15T21:24:46.033Z,15.00
2018-05-15T21:27:13.576Z,15.00
2018-05-15T21:29:43.075Z,15.00
2018-05-15T21:32:11.645Z,15.00
2018-05-15T21:34:39.195Z,15.00
2018-05-15T21:37:06.768Z,14.90
2018-05-15T21:39:34.328Z,14.90
2018-05-15T21:42:01.865Z,14.90
2018-05-15T21:44:29.392Z,14.90
2018-05-15T21:46:56.920Z,14.90
2018-05-15T21:49:24.502Z,14.90
2018-05-15T21:51:52.083Z,14.80
2018-05-15T21:54:19.858Z,14.80
2018-05-15T21:56:47.407Z,14.70
2018-05-15T21:59:14.949Z,14.70
2018-05-15T22:01:42.532Z,14.60
2018-05-15T22:04:10.072Z,14.50
2018-05-15T22:06:37.645Z,14.50
2018-05-15T22:09:05.192Z,14.40
2018-05-15T22:11:44.737Z,14.30
2018-05-15T22:14:24.388Z,14.20
2018-05-15T22:17:04.029Z,14.10
2018-05-15T22:19:43.447Z,14.00
2018-05-15T22:22:14.460Z,13.90
2018-05-15T22:24:42.033Z,13.80
2018-05-15T22:27:09.670Z,13.70
2018-05-15T22:29:37.228Z,13.60
2018-05-15T22:32:04.752Z,13.60
2018-05-15T22:34:32.309Z,13.50
2018-05-15T22:36:59.868Z,13.40
2018-05-15T22:39:27.440Z,13.40
2018-05-15T22:41:55.731Z,13.30
2018-05-15T22:44:23.270Z,13.30
2018-05-15T22:46:51.735Z,13.20
2018-05-15T22:49:20.098Z,13.20
2018-05-15T22:51:47.686Z,13.20
2018-05-15T22:54:16.001Z,13.10
2018-05-15T22:56:43.524Z,13.10
2018-05-15T22:59:11.869Z,13.00
2018-05-15T23:01:39.424Z,13.00
2018-05-15T23:04:06.959Z,13.00
2018-05-15T23:06:34.578Z,13.00
2018-05-15T23:09:02.792Z,13.00
2018-05-15T23:11:30.353Z,12.90
2018-05-15T23:13:58.670Z,12.90
2018-05-15T23:16:26.357Z,12.90
2018-05-15T23:18:54.754Z,12.90
2018-05-15T23:21:22.291Z,12.90
2018-05-15T23:23:50.586Z,12.90
2018-05-15T23:26:18.161Z,12.90
2018-05-15T23:28:45.685Z,12.90
2018-05-15T23:31:14.039Z,12.80
2018-05-15T23:33:41.615Z,12.80
2018-05-15T23:36:09.933Z,12.70
2018-05-15T23:38:37.460Z,12.70
2018-05-15T23:41:05.028Z,12.70
2018-05-15T23:43:32.599Z,12.60
2018-05-15T23:46:00.132Z,12.60
2018-05-15T23:48:28.448Z,12.40
2018-05-15T23:50:58.940Z,12.40
2018-05-15T23:53:27.311Z,12.30
2018-05-15T23:55:54.853Z,12.30
2018-05-15T23:58:22.374Z,12.20
